sensor_id;sensor_type;location;lat;lon;timestamp;pressure;altitude;pressure_sealevel;temperature;humidity
55757;BME280;41676;44.610;44.078;2023-05-29T00:02:24;99731.69;;;21.76;69.94
55757;BME280;41676;44.610;44.078;2023-05-29T00:07:25;99731.97;;;21.80;69.87
55757;BME280;41676;44.610;44.078;2023-05-29T00:12:26;99718.16;;;21.76;69.90
55757;BME280;41676;44.610;44.078;2023-05-29T00:17:27;99714.81;;;21.64;71.13
55757;BME280;41676;44.610;44.078;2023-05-29T00:22:28;99703.81;;;21.43;72.07
55757;BME280;41676;44.610;44.078;2023-05-29T00:27:29;99641.13;;;20.92;73.10
55757;BME280;41676;44.610;44.078;2023-05-29T00:32:29;99641.81;;;20.83;73.30
55757;BME280;41676;44.610;44.078;2023-05-29T00:37:30;99609.69;;;20.59;74.17
55757;BME280;41676;44.610;44.078;2023-05-29T00:42:31;99693.53;;;20.96;75.36
55757;BME280;41676;44.610;44.078;2023-05-29T00:47:32;99669.94;;;20.65;76.34
55757;BME280;41676;44.610;44.078;2023-05-29T00:52:33;99682.25;;;20.56;77.34
55757;BME280;41676;44.610;44.078;2023-05-29T00:57:34;99670.56;;;20.33;78.76
55757;BME280;41676;44.610;44.078;2023-05-29T01:02:39;99690.44;;;20.27;82.17
55757;BME280;41676;44.610;44.078;2023-05-29T01:07:42;99685.06;;;20.10;82.36
55757;BME280;41676;44.610;44.078;2023-05-29T01:12:59;99691.59;;;19.97;86.63
55757;BME280;41676;44.610;44.078;2023-05-29T01:18:18;99676.81;;;19.83;84.60
55757;BME280;41676;44.610;44.078;2023-05-29T01:23:50;99680.00;;;19.80;88.39
55757;BME280;41676;44.610;44.078;2023-05-29T01:28:53;99668.78;;;19.54;85.63
55757;BME280;41676;44.610;44.078;2023-05-29T01:33:58;99650.16;;;19.36;86.41
55757;BME280;41676;44.610;44.078;2023-05-29T01:39:00;99672.50;;;19.36;86.60
55757;BME280;41676;44.610;44.078;2023-05-29T01:44:05;99668.09;;;19.30;88.58
55757;BME280;41676;44.610;44.078;2023-05-29T01:49:09;99681.66;;;19.35;87.00
55757;BME280;41676;44.610;44.078;2023-05-29T01:54:11;99592.91;;;18.83;86.64
55757;BME280;41676;44.610;44.078;2023-05-29T01:59:12;99659.25;;;19.18;87.42
55757;BME280;41676;44.610;44.078;2023-05-29T02:04:13;99675.84;;;19.27;88.21
55757;BME280;41676;44.610;44.078;2023-05-29T02:09:16;99614.19;;;18.97;89.74
55757;BME280;41676;44.610;44.078;2023-05-29T02:14:17;99691.72;;;19.57;88.52
55757;BME280;41676;44.610;44.078;2023-05-29T02:19:19;99674.47;;;19.70;87.74
55757;BME280;41676;44.610;44.078;2023-05-29T02:24:20;99696.00;;;20.03;86.53
55757;BME280;41676;44.610;44.078;2023-05-29T02:29:20;99681.84;;;20.30;85.98
55757;BME280;41676;44.610;44.078;2023-05-29T02:34:21;99668.28;;;20.64;83.17
55757;BME280;41676;44.610;44.078;2023-05-29T02:39:25;99683.09;;;21.27;79.95
55757;BME280;41676;44.610;44.078;2023-05-29T02:44:25;99622.28;;;21.25;77.82
55757;BME280;41676;44.610;44.078;2023-05-29T02:49:26;99621.13;;;21.80;75.14
55757;BME280;41676;44.610;44.078;2023-05-29T02:54:27;99695.06;;;22.81;73.48
55757;BME280;41676;44.610;44.078;2023-05-29T02:59:28;99706.06;;;23.27;71.96
55757;BME280;41676;44.610;44.078;2023-05-29T03:04:29;99720.28;;;23.75;69.96
55757;BME280;41676;44.610;44.078;2023-05-29T03:09:30;99693.69;;;23.61;68.94
55757;BME280;41676;44.610;44.078;2023-05-29T03:14:31;99723.53;;;23.92;68.52
55757;BME280;41676;44.610;44.078;2023-05-29T03:19:36;99718.13;;;23.82;68.29
55757;BME280;41676;44.610;44.078;2023-05-29T03:24:38;99722.75;;;23.97;66.79
55757;BME280;41676;44.610;44.078;2023-05-29T03:29:39;99603.66;;;23.34;66.05
55757;BME280;41676;44.610;44.078;2023-05-29T03:34:39;99675.28;;;23.74;65.78
55757;BME280;41676;44.610;44.078;2023-05-29T03:39:40;99683.09;;;23.60;66.73
55757;BME280;41676;44.610;44.078;2023-05-29T03:44:42;99746.31;;;23.81;65.91
55757;BME280;41676;44.610;44.078;2023-05-29T03:49:42;99730.81;;;23.66;65.71
55757;BME280;41676;44.610;44.078;2023-05-29T03:54:43;99751.97;;;23.64;65.52
55757;BME280;41676;44.610;44.078;2023-05-29T03:59:45;99727.28;;;23.55;65.69
55757;BME280;41676;44.610;44.078;2023-05-29T04:04:46;99761.53;;;24.02;65.08
55757;BME280;41676;44.610;44.078;2023-05-29T04:09:47;99765.31;;;24.22;63.09
55757;BME280;41676;44.610;44.078;2023-05-29T04:14:47;99765.56;;;24.41;63.71
55757;BME280;41676;44.610;44.078;2023-05-29T04:19:48;99763.66;;;24.62;62.55
55757;BME280;41676;44.610;44.078;2023-05-29T04:24:49;99767.38;;;24.91;62.67
55757;BME280;41676;44.610;44.078;2023-05-29T04:29:50;99768.41;;;25.11;63.61
55757;BME280;41676;44.610;44.078;2023-05-29T04:34:51;99742.63;;;25.13;63.32
55757;BME280;41676;44.610;44.078;2023-05-29T04:39:52;99755.91;;;25.15;63.96
55757;BME280;41676;44.610;44.078;2023-05-29T04:44:53;99772.50;;;25.03;60.88
55757;BME280;41676;44.610;44.078;2023-05-29T04:49:54;99732.19;;;24.60;58.84
55757;BME280;41676;44.610;44.078;2023-05-29T04:54:55;99792.94;;;24.90;57.83
55757;BME280;41676;44.610;44.078;2023-05-29T04:59:57;99801.66;;;24.82;56.77
55757;BME280;41676;44.610;44.078;2023-05-29T05:04:57;99800.03;;;24.86;56.70
55757;BME280;41676;44.610;44.078;2023-05-29T05:09:59;99726.50;;;24.47;55.74
55757;BME280;41676;44.610;44.078;2023-05-29T05:15:00;99788.47;;;25.30;54.82
55757;BME280;41676;44.610;44.078;2023-05-29T05:20:00;99720.97;;;25.87;52.97
55757;BME280;41676;44.610;44.078;2023-05-29T05:25:06;99799.81;;;27.14;50.83
55757;BME280;41676;44.610;44.078;2023-05-29T05:30:07;99774.59;;;27.65;49.31
55757;BME280;41676;44.610;44.078;2023-05-29T05:35:08;99790.59;;;28.09;49.66
55757;BME280;41676;44.610;44.078;2023-05-29T05:40:12;99800.81;;;28.36;47.48
55757;BME280;41676;44.610;44.078;2023-05-29T05:45:13;99789.97;;;28.31;46.42
55757;BME280;41676;44.610;44.078;2023-05-29T05:50:14;99764.97;;;28.38;47.31
55757;BME280;41676;44.610;44.078;2023-05-29T05:55:15;99777.91;;;28.32;46.99
55757;BME280;41676;44.610;44.078;2023-05-29T06:00:17;99782.38;;;28.28;47.58
55757;BME280;41676;44.610;44.078;2023-05-29T06:05:18;99768.59;;;28.19;47.63
55757;BME280;41676;44.610;44.078;2023-05-29T06:10:18;99767.34;;;28.12;48.96
55757;BME280;41676;44.610;44.078;2023-05-29T06:15:19;99760.44;;;27.82;49.23
55757;BME280;41676;44.610;44.078;2023-05-29T06:20:20;99758.31;;;27.60;49.41
55757;BME280;41676;44.610;44.078;2023-05-29T06:25:21;99763.97;;;27.63;50.79
55757;BME280;41676;44.610;44.078;2023-05-29T06:30:22;99740.97;;;27.50;49.96
55757;BME280;41676;44.610;44.078;2023-05-29T06:35:23;99741.03;;;27.45;50.92
55757;BME280;41676;44.610;44.078;2023-05-29T06:40:23;99720.84;;;27.27;51.74
55757;BME280;41676;44.610;44.078;2023-05-29T06:45:24;99675.63;;;26.83;51.68
55757;BME280;41676;44.610;44.078;2023-05-29T06:50:25;99743.03;;;26.97;51.96
55757;BME280;41676;44.610;44.078;2023-05-29T06:55:26;99742.72;;;26.74;52.89
55757;BME280;41676;44.610;44.078;2023-05-29T07:00:26;99742.53;;;26.41;53.47
55757;BME280;41676;44.610;44.078;2023-05-29T07:05:28;99737.06;;;26.17;54.00
55757;BME280;41676;44.610;44.078;2023-05-29T07:10:29;99605.31;;;25.21;54.46
55757;BME280;41676;44.610;44.078;2023-05-29T07:15:29;99756.31;;;25.87;56.95
55757;BME280;41676;44.610;44.078;2023-05-29T07:20:30;99685.22;;;25.25;59.73
55757;BME280;41676;44.610;44.078;2023-05-29T07:25:31;99772.63;;;25.47;63.08
55757;BME280;41676;44.610;44.078;2023-05-29T07:30:31;99768.84;;;25.38;66.46
55757;BME280;41676;44.610;44.078;2023-05-29T07:35:32;99718.53;;;24.86;69.05
55757;BME280;41676;44.610;44.078;2023-05-29T07:40:34;99785.81;;;25.15;69.81
55757;BME280;41676;44.610;44.078;2023-05-29T07:45:34;99802.66;;;25.17;70.92
55757;BME280;41676;44.610;44.078;2023-05-29T07:50:35;99804.03;;;25.19;71.33
55757;BME280;41676;44.610;44.078;2023-05-29T07:55:37;99789.03;;;25.27;70.26
55757;BME280;41676;44.610;44.078;2023-05-29T08:00:38;99788.94;;;25.42;69.72
55757;BME280;41676;44.610;44.078;2023-05-29T08:05:39;99811.63;;;25.72;70.31
55757;BME280;41676;44.610;44.078;2023-05-29T08:10:40;99811.03;;;25.85;69.94
55757;BME280;41676;44.610;44.078;2023-05-29T08:15:40;99769.78;;;25.63;70.39
55757;BME280;41676;44.610;44.078;2023-05-29T08:20:41;99710.72;;;25.34;70.54
55757;BME280;41676;44.610;44.078;2023-05-29T08:25:43;99757.31;;;25.62;71.58
55757;BME280;41676;44.610;44.078;2023-05-29T08:30:44;99754.38;;;25.48;73.24
55757;BME280;41676;44.610;44.078;2023-05-29T08:35:45;99745.28;;;25.68;74.32
55757;BME280;41676;44.610;44.078;2023-05-29T08:40:47;99671.16;;;25.52;73.20
55757;BME280;41676;44.610;44.078;2023-05-29T08:45:53;99729.16;;;26.16;74.55
55757;BME280;41676;44.610;44.078;2023-05-29T08:50:56;99713.19;;;26.33;72.03
55757;BME280;41676;44.610;44.078;2023-05-29T08:55:57;99703.84;;;26.93;69.29
55757;BME280;41676;44.610;44.078;2023-05-29T09:00:58;99699.75;;;27.52;67.22
55757;BME280;41676;44.610;44.078;2023-05-29T09:06:00;99636.13;;;27.57;64.24
55757;BME280;41676;44.610;44.078;2023-05-29T09:11:01;99597.06;;;27.61;60.82
55757;BME280;41676;44.610;44.078;2023-05-29T09:16:02;99676.34;;;28.16;58.69
55757;BME280;41676;44.610;44.078;2023-05-29T09:21:07;99665.88;;;28.51;57.05
55757;BME280;41676;44.610;44.078;2023-05-29T09:26:14;99501.16;;;28.23;54.67
55757;BME280;41676;44.610;44.078;2023-05-29T09:31:15;99624.94;;;29.46;54.26
55757;BME280;41676;44.610;44.078;2023-05-29T09:36:21;99568.59;;;29.14;51.06
55757;BME280;41676;44.610;44.078;2023-05-29T09:41:23;99642.06;;;29.52;50.09
55757;BME280;41676;44.610;44.078;2023-05-29T09:46:24;99614.97;;;29.95;49.40
55757;BME280;41676;44.610;44.078;2023-05-29T09:51:25;99647.25;;;30.07;48.89
55757;BME280;41676;44.610;44.078;2023-05-29T09:56:27;99645.19;;;29.82;49.20
55757;BME280;41676;44.610;44.078;2023-05-29T10:01:28;99644.00;;;29.51;49.71
55757;BME280;41676;44.610;44.078;2023-05-29T10:06:30;99636.44;;;29.34;49.42
55757;BME280;41676;44.610;44.078;2023-05-29T10:11:31;99607.84;;;29.18;49.37
55757;BME280;41676;44.610;44.078;2023-05-29T10:16:35;99554.47;;;28.84;49.06
55757;BME280;41676;44.610;44.078;2023-05-29T10:21:42;99627.44;;;29.34;48.81
55757;BME280;41676;44.610;44.078;2023-05-29T10:26:46;99619.03;;;29.98;48.74
55757;BME280;41676;44.610;44.078;2023-05-29T10:37:25;99629.31;;;29.70;47.01
55757;BME280;41676;44.610;44.078;2023-05-29T10:42:46;99604.25;;;29.76;46.84
55757;BME280;41676;44.610;44.078;2023-05-29T10:47:48;99593.97;;;29.82;46.55
55757;BME280;41676;44.610;44.078;2023-05-29T10:52:48;99581.19;;;30.09;45.92
55757;BME280;41676;44.610;44.078;2023-05-29T10:57:49;99555.53;;;30.44;44.26
55757;BME280;41676;44.610;44.078;2023-05-29T11:02:52;99594.00;;;31.14;41.62
55757;BME280;41676;44.610;44.078;2023-05-29T11:07:59;99574.31;;;31.29;40.96
55757;BME280;41676;44.610;44.078;2023-05-29T11:13:03;99582.53;;;31.38;37.79
55757;BME280;41676;44.610;44.078;2023-05-29T11:18:08;99582.50;;;31.64;36.09
55757;BME280;41676;44.610;44.078;2023-05-29T11:23:15;99590.66;;;31.99;38.17
55757;BME280;41676;44.610;44.078;2023-05-29T11:28:17;99575.53;;;31.75;36.20
55757;BME280;41676;44.610;44.078;2023-05-29T11:33:26;99580.78;;;31.98;38.05
55757;BME280;41676;44.610;44.078;2023-05-29T11:38:28;99584.50;;;32.02;36.89
55757;BME280;41676;44.610;44.078;2023-05-29T11:43:29;99573.22;;;31.95;36.50
55757;BME280;41676;44.610;44.078;2023-05-29T11:48:30;99548.34;;;31.82;35.64
55757;BME280;41676;44.610;44.078;2023-05-29T11:53:30;99556.91;;;31.98;35.71
55757;BME280;41676;44.610;44.078;2023-05-29T11:58:31;99488.22;;;31.60;34.90
55757;BME280;41676;44.610;44.078;2023-05-29T12:03:40;99563.00;;;32.04;33.68
55757;BME280;41676;44.610;44.078;2023-05-29T12:08:41;99499.97;;;31.69;33.64
55757;BME280;41676;44.610;44.078;2023-05-29T12:13:42;99558.06;;;32.18;35.06
55757;BME280;41676;44.610;44.078;2023-05-29T12:18:42;99555.72;;;32.38;34.36
55757;BME280;41676;44.610;44.078;2023-05-29T12:23:44;99545.09;;;32.27;34.62
55757;BME280;41676;44.610;44.078;2023-05-29T12:28:45;99543.47;;;32.26;33.80
55757;BME280;41676;44.610;44.078;2023-05-29T12:33:46;99537.31;;;32.29;33.46
55757;BME280;41676;44.610;44.078;2023-05-29T12:38:50;99550.22;;;32.38;32.83
55757;BME280;41676;44.610;44.078;2023-05-29T12:43:58;99544.03;;;32.41;32.89
55757;BME280;41676;44.610;44.078;2023-05-29T12:49:11;99494.63;;;32.32;31.93
55757;BME280;41676;44.610;44.078;2023-05-29T12:54:16;99545.09;;;32.57;31.16
55757;BME280;41676;44.610;44.078;2023-05-29T12:59:17;99539.59;;;32.57;31.30
55757;BME280;41676;44.610;44.078;2023-05-29T13:04:18;99490.78;;;32.24;31.96
55757;BME280;41676;44.610;44.078;2023-05-29T13:09:18;99461.28;;;32.13;31.21
55757;BME280;41676;44.610;44.078;2023-05-29T13:14:19;99555.88;;;32.83;31.36
55757;BME280;41676;44.610;44.078;2023-05-29T13:19:20;99552.16;;;32.67;31.37
55757;BME280;41676;44.610;44.078;2023-05-29T13:24:21;99539.47;;;32.74;30.96
55757;BME280;41676;44.610;44.078;2023-05-29T13:29:21;99524.78;;;32.70;31.30
55757;BME280;41676;44.610;44.078;2023-05-29T13:34:22;99541.22;;;32.58;31.13
55757;BME280;41676;44.610;44.078;2023-05-29T13:39:28;99525.38;;;32.55;31.28
55757;BME280;41676;44.610;44.078;2023-05-29T13:44:29;99526.19;;;32.56;31.46
55757;BME280;41676;44.610;44.078;2023-05-29T13:49:29;99461.09;;;32.18;31.33
55757;BME280;41676;44.610;44.078;2023-05-29T13:54:30;99521.81;;;32.55;31.35
55757;BME280;41676;44.610;44.078;2023-05-29T13:59:35;99524.06;;;32.32;31.48
55757;BME280;41676;44.610;44.078;2023-05-29T14:04:36;99534.97;;;32.19;32.13
55757;BME280;41676;44.610;44.078;2023-05-29T14:09:38;99523.97;;;31.90;32.60
55757;BME280;41676;44.610;44.078;2023-05-29T14:14:40;99537.00;;;31.54;32.47
55757;BME280;41676;44.610;44.078;2023-05-29T14:19:41;99513.97;;;31.12;33.42
55757;BME280;41676;44.610;44.078;2023-05-29T14:24:42;99484.91;;;30.24;37.25
55757;BME280;41676;44.610;44.078;2023-05-29T14:29:43;99534.56;;;29.83;39.51
55757;BME280;41676;44.610;44.078;2023-05-29T14:34:43;99530.09;;;29.33;40.68
55757;BME280;41676;44.610;44.078;2023-05-29T14:39:44;99544.00;;;29.00;41.50
55757;BME280;41676;44.610;44.078;2023-05-29T14:44:45;99531.75;;;28.75;42.27
55757;BME280;41676;44.610;44.078;2023-05-29T14:49:46;99561.25;;;28.87;43.00
55757;BME280;41676;44.610;44.078;2023-05-29T14:54:46;99559.81;;;28.89;43.45
55757;BME280;41676;44.610;44.078;2023-05-29T14:59:47;99560.13;;;29.02;43.96
55757;BME280;41676;44.610;44.078;2023-05-29T15:04:48;99568.50;;;29.05;44.19
55757;BME280;41676;44.610;44.078;2023-05-29T15:09:49;99527.34;;;28.88;44.40
55757;BME280;41676;44.610;44.078;2023-05-29T15:14:49;99546.47;;;29.02;44.21
55757;BME280;41676;44.610;44.078;2023-05-29T15:19:50;99554.84;;;28.92;45.47
55757;BME280;41676;44.610;44.078;2023-05-29T15:24:51;99514.47;;;28.38;46.79
55757;BME280;41676;44.610;44.078;2023-05-29T15:29:52;99468.09;;;27.97;47.67
55757;BME280;41676;44.610;44.078;2023-05-29T15:34:53;99554.97;;;28.22;49.07
55757;BME280;41676;44.610;44.078;2023-05-29T15:39:55;99587.84;;;28.04;50.19
55757;BME280;41676;44.610;44.078;2023-05-29T15:44:56;99569.84;;;27.70;50.35
55757;BME280;41676;44.610;44.078;2023-05-29T15:49:57;99591.47;;;27.52;50.59
55757;BME280;41676;44.610;44.078;2023-05-29T15:54:58;99596.88;;;27.39;50.71
55757;BME280;41676;44.610;44.078;2023-05-29T15:59:59;99591.28;;;27.11;50.77
55757;BME280;41676;44.610;44.078;2023-05-29T16:05:00;99532.81;;;26.66;50.14
55757;BME280;41676;44.610;44.078;2023-05-29T16:10:02;99624.72;;;26.98;49.98
55757;BME280;41676;44.610;44.078;2023-05-29T16:15:03;99623.31;;;26.81;49.84
55757;BME280;41676;44.610;44.078;2023-05-29T16:20:05;99612.53;;;26.52;49.99
55757;BME280;41676;44.610;44.078;2023-05-29T16:25:06;99607.06;;;26.28;49.75
55757;BME280;41676;44.610;44.078;2023-05-29T16:30:08;99631.88;;;26.27;49.86
55757;BME280;41676;44.610;44.078;2023-05-29T16:35:09;99610.88;;;26.03;50.53
55757;BME280;41676;44.610;44.078;2023-05-29T16:40:10;99615.84;;;25.96;50.68
55757;BME280;41676;44.610;44.078;2023-05-29T16:45:11;99620.34;;;25.82;50.94
55757;BME280;41676;44.610;44.078;2023-05-29T16:50:12;99583.16;;;25.38;51.21
55757;BME280;41676;44.610;44.078;2023-05-29T16:55:13;99482.88;;;24.63;51.62
55757;BME280;41676;44.610;44.078;2023-05-29T17:00:14;99609.59;;;25.27;51.61
55757;BME280;41676;44.610;44.078;2023-05-29T17:05:15;99627.56;;;25.28;51.55
55757;BME280;41676;44.610;44.078;2023-05-29T17:10:16;99559.16;;;24.71;52.26
55757;BME280;41676;44.610;44.078;2023-05-29T17:15:17;99490.16;;;24.18;53.37
55757;BME280;41676;44.610;44.078;2023-05-29T17:20:18;99609.63;;;24.77;52.62
55757;BME280;41676;44.610;44.078;2023-05-29T17:25:19;99619.97;;;24.75;52.57
55757;BME280;41676;44.610;44.078;2023-05-29T17:30:20;99639.75;;;24.81;51.83
55757;BME280;41676;44.610;44.078;2023-05-29T17:35:21;99639.22;;;24.74;52.46
55757;BME280;41676;44.610;44.078;2023-05-29T17:40:21;99636.03;;;24.62;52.19
55757;BME280;41676;44.610;44.078;2023-05-29T17:45:22;99622.00;;;24.44;52.29
55757;BME280;41676;44.610;44.078;2023-05-29T17:50:23;99629.59;;;24.42;52.16
55757;BME280;41676;44.610;44.078;2023-05-29T17:55:24;99639.88;;;24.40;51.89
55757;BME280;41676;44.610;44.078;2023-05-29T18:00:24;99624.75;;;24.24;52.22
55757;BME280;41676;44.610;44.078;2023-05-29T18:05:25;99643.16;;;24.32;52.08
55757;BME280;41676;44.610;44.078;2023-05-29T18:10:26;99655.66;;;24.23;52.57
55757;BME280;41676;44.610;44.078;2023-05-29T18:15:28;99653.78;;;24.18;52.51
55757;BME280;41676;44.610;44.078;2023-05-29T18:20:29;99659.22;;;24.13;52.72
55757;BME280;41676;44.610;44.078;2023-05-29T18:25:30;99663.31;;;24.00;53.42
55757;BME280;41676;44.610;44.078;2023-05-29T18:30:30;99658.44;;;23.97;53.71
55757;BME280;41676;44.610;44.078;2023-05-29T18:35:32;99660.91;;;23.94;53.11
55757;BME280;41676;44.610;44.078;2023-05-29T18:40:32;99595.78;;;23.47;53.27
55757;BME280;41676;44.610;44.078;2023-05-29T18:45:34;99687.47;;;23.91;53.79
55757;BME280;41676;44.610;44.078;2023-05-29T18:50:37;99683.94;;;23.81;54.75
55757;BME280;41676;44.610;44.078;2023-05-29T18:55:38;99582.78;;;23.19;54.86
55757;BME280;41676;44.610;44.078;2023-05-29T19:00:38;99606.63;;;23.22;55.23
55757;BME280;41676;44.610;44.078;2023-05-29T19:05:40;99688.25;;;23.61;55.77
55757;BME280;41676;44.610;44.078;2023-05-29T19:10:43;99672.78;;;23.46;56.62
55757;BME280;41676;44.610;44.078;2023-05-29T19:15:44;99668.97;;;23.22;57.38
55757;BME280;41676;44.610;44.078;2023-05-29T19:20:45;99624.69;;;22.91;57.87
55757;BME280;41676;44.610;44.078;2023-05-29T19:25:45;99656.97;;;23.02;59.11
55757;BME280;41676;44.610;44.078;2023-05-29T19:30:46;99655.84;;;22.93;59.86
55757;BME280;41676;44.610;44.078;2023-05-29T19:35:47;99661.78;;;22.90;60.33
55757;BME280;41676;44.610;44.078;2023-05-29T19:40:48;99659.34;;;22.84;60.67
55757;BME280;41676;44.610;44.078;2023-05-29T19:45:49;99647.88;;;22.66;61.59
55757;BME280;41676;44.610;44.078;2023-05-29T19:50:49;99624.00;;;22.48;62.68
55757;BME280;41676;44.610;44.078;2023-05-29T19:55:50;99611.47;;;22.31;63.26
55757;BME280;41676;44.610;44.078;2023-05-29T20:00:51;99625.53;;;22.33;63.20
55757;BME280;41676;44.610;44.078;2023-05-29T20:05:55;99637.19;;;22.34;63.26
55757;BME280;41676;44.610;44.078;2023-05-29T20:10:55;99639.03;;;22.23;63.71
55757;BME280;41676;44.610;44.078;2023-05-29T20:15:56;99625.75;;;22.17;64.19
55757;BME280;41676;44.610;44.078;2023-05-29T20:20:57;99608.31;;;22.02;64.37
55757;BME280;41676;44.610;44.078;2023-05-29T20:25:58;99609.13;;;22.03;64.51
55757;BME280;41676;44.610;44.078;2023-05-29T20:30:59;99606.38;;;21.98;64.65
55757;BME280;41676;44.610;44.078;2023-05-29T20:36:00;99562.59;;;21.58;65.32
55757;BME280;41676;44.610;44.078;2023-05-29T20:41:01;99590.53;;;21.69;66.09
55757;BME280;41676;44.610;44.078;2023-05-29T20:46:03;99566.03;;;21.49;66.06
55757;BME280;41676;44.610;44.078;2023-05-29T20:51:05;99471.53;;;20.89;66.90
55757;BME280;41676;44.610;44.078;2023-05-29T20:56:07;99592.59;;;21.57;67.06
55757;BME280;41676;44.610;44.078;2023-05-29T21:01:07;99498.09;;;21.03;67.62
55757;BME280;41676;44.610;44.078;2023-05-29T21:06:08;99570.88;;;21.47;68.25
55757;BME280;41676;44.610;44.078;2023-05-29T21:11:09;99558.03;;;21.32;68.05
55757;BME280;41676;44.610;44.078;2023-05-29T21:16:10;99568.28;;;21.30;68.42
55757;BME280;41676;44.610;44.078;2023-05-29T21:21:11;99564.75;;;21.24;69.00
55757;BME280;41676;44.610;44.078;2023-05-29T21:26:12;99573.00;;;21.12;69.08
55757;BME280;41676;44.610;44.078;2023-05-29T21:31:13;99515.41;;;20.74;69.52
55757;BME280;41676;44.610;44.078;2023-05-29T21:36:15;99487.69;;;20.57;69.88
55757;BME280;41676;44.610;44.078;2023-05-29T21:41:17;99538.63;;;20.75;70.31
55757;BME280;41676;44.610;44.078;2023-05-29T21:46:18;99573.56;;;20.87;70.76
55757;BME280;41676;44.610;44.078;2023-05-29T21:51:19;99574.53;;;20.76;71.40
55757;BME280;41676;44.610;44.078;2023-05-29T21:56:20;99512.22;;;20.34;71.63
55757;BME280;41676;44.610;44.078;2023-05-29T22:01:22;99423.44;;;19.78;72.06
55757;BME280;41676;44.610;44.078;2023-05-29T22:06:23;99550.13;;;20.66;72.86
55757;BME280;41676;44.610;44.078;2023-05-29T22:11:24;99562.03;;;20.70;72.29
55757;BME280;41676;44.610;44.078;2023-05-29T22:16:26;99553.72;;;20.49;72.55
55757;BME280;41676;44.610;44.078;2023-05-29T22:21:27;99511.19;;;20.13;72.75
55757;BME280;41676;44.610;44.078;2023-05-29T22:26:27;99576.50;;;20.59;73.06
55757;BME280;41676;44.610;44.078;2023-05-29T22:31:28;99567.59;;;20.58;73.47
55757;BME280;41676;44.610;44.078;2023-05-29T22:36:29;99551.19;;;20.43;74.41
55757;BME280;41676;44.610;44.078;2023-05-29T22:41:30;99497.66;;;20.08;75.15
55757;BME280;41676;44.610;44.078;2023-05-29T22:46:31;99538.16;;;20.35;74.73
55757;BME280;41676;44.610;44.078;2023-05-29T22:51:32;99533.00;;;20.33;74.98
55757;BME280;41676;44.610;44.078;2023-05-29T22:56:33;99392.38;;;19.53;74.22
55757;BME280;41676;44.610;44.078;2023-05-29T23:01:33;99508.13;;;20.26;74.13
55757;BME280;41676;44.610;44.078;2023-05-29T23:06:34;99539.47;;;20.32;74.16
55757;BME280;41676;44.610;44.078;2023-05-29T23:11:35;99532.09;;;20.22;73.88
55757;BME280;41676;44.610;44.078;2023-05-29T23:16:35;99553.47;;;20.29;73.80
55757;BME280;41676;44.610;44.078;2023-05-29T23:21:37;99559.28;;;20.21;74.53
55757;BME280;41676;44.610;44.078;2023-05-29T23:26:37;99570.47;;;20.29;75.08
55757;BME280;41676;44.610;44.078;2023-05-29T23:31:38;99553.59;;;20.17;75.17
55757;BME280;41676;44.610;44.078;2023-05-29T23:36:39;99553.97;;;20.26;75.59
55757;BME280;41676;44.610;44.078;2023-05-29T23:41:41;99538.72;;;20.15;75.84
55757;BME280;41676;44.610;44.078;2023-05-29T23:46:42;99562.78;;;20.21;76.45
55757;BME280;41676;44.610;44.078;2023-05-29T23:51:43;99568.50;;;20.25;76.87
55757;BME280;41676;44.610;44.078;2023-05-29T23:56:43;99555.41;;;20.12;77.19
